createdAt,value
2022-09-27T00:02:02.682Z,48.80
2022-09-27T00:04:36.890Z,48.80
2022-09-27T00:07:11.563Z,48.80
2022-09-27T00:09:46.933Z,48.90
2022-09-27T00:12:20.950Z,48.90
2022-09-27T00:14:55.003Z,49.00
2022-09-27T00:17:29.019Z,49.00
2022-09-27T00:20:04.065Z,49.00
2022-09-27T00:22:38.577Z,49.10
2022-09-27T00:25:14.002Z,49.00
2022-09-27T00:27:47.974Z,49.00
2022-09-27T00:30:21.983Z,48.90
2022-09-27T00:32:55.963Z,48.90
2022-09-27T00:35:30.100Z,49.00
2022-09-27T00:38:04.063Z,48.90
2022-09-27T00:40:39.625Z,49.00
2022-09-27T00:43:19.101Z,48.70
2022-09-27T00:45:56.513Z,48.50
2022-09-27T00:48:33.880Z,48.50
2022-09-27T00:51:11.067Z,48.30
2022-09-27T00:53:51.699Z,48.30
2022-09-27T00:56:30.711Z,48.10
2022-09-27T00:59:10.760Z,48.50
2022-09-27T01:01:45.541Z,48.60
2022-09-27T01:04:24.255Z,48.50
2022-09-27T01:06:58.503Z,48.50
2022-09-27T01:09:32.881Z,48.70
2022-09-27T01:12:22.257Z,48.80
2022-09-27T01:15:09.701Z,49.10
2022-09-27T01:17:55.891Z,49.20
2022-09-27T01:21:09.007Z,49.40
2022-09-27T01:24:09.901Z,49.50
2022-09-27T01:27:18.175Z,49.60
2022-09-27T01:30:05.751Z,49.70
2022-09-27T01:32:52.337Z,49.80
2022-09-27T01:35:36.851Z,49.80
2022-09-27T01:38:17.825Z,49.90
2022-09-27T01:41:00.935Z,49.90
2022-09-27T01:44:00.921Z,49.90
2022-09-27T01:46:41.939Z,50.00
2022-09-27T01:49:40.921Z,50.00
2022-09-27T01:52:19.762Z,50.00
2022-09-27T01:55:01.675Z,50.00
2022-09-27T01:57:50.652Z,50.00
2022-09-27T02:00:30.963Z,50.00
2022-09-27T02:03:12.027Z,50.00
2022-09-27T02:05:49.405Z,50.10
2022-09-27T02:08:51.656Z,50.10
2022-09-27T02:11:56.639Z,50.10
2022-09-27T02:14:36.360Z,50.10
2022-09-27T02:17:20.156Z,50.10
2022-09-27T02:20:03.890Z,50.10
2022-09-27T02:22:53.187Z,50.10
2022-09-27T02:25:35.015Z,50.10
2022-09-27T02:28:15.374Z,50.10
2022-09-27T02:30:49.544Z,50.10
2022-09-27T02:33:34.792Z,50.20
2022-09-27T02:36:09.738Z,50.10
2022-09-27T02:38:45.948Z,50.10
2022-09-27T02:41:23.955Z,50.20
2022-09-27T02:44:03.013Z,50.20
2022-09-27T02:47:00.218Z,50.20
2022-09-27T02:49:52.838Z,50.10
2022-09-27T02:52:57.405Z,50.20
2022-09-27T02:55:51.067Z,50.10
2022-09-27T02:58:59.698Z,50.10
2022-09-27T03:01:56.130Z,50.20
2022-09-27T03:04:41.196Z,50.10
2022-09-27T03:07:16.069Z,50.20
2022-09-27T03:09:52.640Z,50.20
2022-09-27T03:12:28.763Z,50.20
2022-09-27T03:15:03.238Z,50.20
2022-09-27T03:18:04.183Z,50.10
2022-09-27T03:20:56.554Z,50.20
2022-09-27T03:23:32.600Z,50.20
2022-09-27T03:26:10.731Z,50.20
2022-09-27T03:28:48.796Z,50.20
2022-09-27T03:31:23.022Z,50.30
2022-09-27T03:34:23.503Z,50.20
2022-09-27T03:36:57.652Z,50.30
2022-09-27T03:39:31.849Z,50.30
2022-09-27T03:42:06.211Z,50.40
2022-09-27T03:44:42.040Z,50.40
2022-09-27T03:47:16.093Z,50.40
2022-09-27T03:49:50.658Z,51.10
2022-09-27T03:52:24.786Z,50.50
2022-09-27T03:55:02.098Z,50.60
2022-09-27T03:57:37.350Z,50.60
2022-09-27T04:00:14.573Z,50.70
2022-09-27T04:02:48.889Z,50.80
2022-09-27T04:05:31.659Z,50.80
2022-09-27T04:08:19.112Z,50.80
2022-09-27T04:10:53.139Z,50.90
2022-09-27T04:13:27.188Z,50.90
2022-09-27T04:16:05.519Z,50.90
2022-09-27T04:19:01.733Z,50.90
2022-09-27T04:22:00.511Z,50.90
2022-09-27T04:24:34.486Z,51.00
2022-09-27T04:27:26.364Z,51.00
2022-09-27T04:30:00.401Z,51.00
2022-09-27T04:32:55.829Z,50.90
2022-09-27T04:36:10.485Z,51.00
2022-09-27T04:38:48.251Z,51.00
2022-09-27T04:41:28.486Z,51.00
2022-09-27T04:44:03.230Z,51.10
2022-09-27T04:46:37.449Z,51.10
2022-09-27T04:49:12.974Z,51.00
2022-09-27T04:51:47.268Z,51.10
2022-09-27T04:54:21.339Z,51.10
2022-09-27T04:57:05.454Z,51.10
2022-09-27T04:59:40.791Z,51.10
2022-09-27T05:02:15.076Z,51.60
2022-09-27T05:05:10.099Z,51.70
2022-09-27T05:07:47.034Z,51.90
2022-09-27T05:10:32.696Z,51.80
2022-09-27T05:13:06.950Z,51.90
2022-09-27T05:15:41.116Z,51.80
2022-09-27T05:18:37.311Z,51.60
2022-09-27T05:21:32.975Z,51.40
2022-09-27T05:24:07.333Z,51.30
2022-09-27T05:26:42.076Z,51.10
2022-09-27T05:29:16.330Z,50.90
2022-09-27T05:31:55.661Z,50.70
2022-09-27T05:34:31.696Z,50.50
2022-09-27T05:37:07.420Z,50.30
2022-09-27T05:39:46.344Z,50.40
2022-09-27T05:42:21.654Z,50.30
2022-09-27T05:44:55.931Z,50.20
2022-09-27T05:47:30.565Z,50.10
2022-09-27T05:50:05.921Z,50.20
2022-09-27T05:52:41.556Z,50.40
2022-09-27T05:55:16.485Z,50.90
2022-09-27T05:57:59.001Z,51.10
2022-09-27T06:00:40.075Z,51.10
2022-09-27T06:03:34.084Z,51.10
2022-09-27T06:06:27.555Z,51.00
2022-09-27T06:09:05.999Z,51.20
2022-09-27T06:11:43.060Z,51.60
2022-09-27T06:14:21.027Z,51.70
2022-09-27T06:17:21.127Z,51.70
2022-09-27T06:19:55.721Z,51.60
2022-09-27T06:22:29.977Z,51.40
2022-09-27T06:25:09.900Z,51.20
2022-09-27T06:27:56.069Z,51.10
2022-09-27T06:30:34.400Z,51.00
2022-09-27T06:33:17.481Z,50.90
2022-09-27T06:35:57.803Z,50.80
2022-09-27T06:38:33.027Z,51.40
2022-09-27T06:41:16.689Z,51.80
2022-09-27T06:44:09.429Z,51.90
2022-09-27T06:46:43.492Z,51.60
2022-09-27T06:50:03.962Z,51.00
2022-09-27T06:52:38.427Z,50.30
2022-09-27T06:55:12.689Z,49.90
2022-09-27T06:58:05.726Z,49.80
2022-09-27T07:00:39.875Z,49.70
2022-09-27T07:03:41.740Z,49.50
2022-09-27T07:06:37.700Z,49.60
2022-09-27T07:09:23.035Z,49.60
2022-09-27T07:11:57.757Z,49.50
2022-09-27T07:14:34.322Z,49.40
2022-09-27T07:17:09.414Z,49.20
2022-09-27T07:19:47.500Z,49.00
2022-09-27T07:22:21.829Z,48.90
2022-09-27T07:25:02.077Z,48.70
2022-09-27T07:27:38.574Z,48.60
2022-09-27T07:30:18.055Z,48.40
2022-09-27T07:32:59.279Z,48.30
2022-09-27T07:35:33.992Z,48.30
2022-09-27T07:38:10.815Z,48.20
2022-09-27T07:40:45.484Z,48.10
2022-09-27T07:43:19.872Z,48.10
2022-09-27T07:45:58.192Z,48.30
2022-09-27T07:48:53.622Z,48.40
2022-09-27T07:51:46.361Z,48.60
2022-09-27T07:54:37.673Z,48.60
2022-09-27T07:57:24.335Z,48.50
2022-09-27T08:00:00.773Z,48.50
2022-09-27T08:02:36.668Z,48.60
2022-09-27T08:05:12.005Z,48.90
2022-09-27T08:07:46.240Z,49.00
2022-09-27T08:10:21.145Z,49.30
2022-09-27T08:12:55.267Z,49.30
2022-09-27T08:15:29.685Z,49.50
2022-09-27T08:18:06.424Z,49.80
2022-09-27T08:21:09.688Z,49.80
2022-09-27T08:23:54.231Z,49.60
2022-09-27T08:26:39.728Z,49.40
2022-09-27T08:29:27.087Z,49.70
2022-09-27T08:32:02.787Z,49.80
2022-09-27T08:34:38.756Z,49.80
2022-09-27T08:37:13.112Z,49.80
2022-09-27T08:39:48.227Z,49.00
2022-09-27T08:42:35.189Z,46.70
2022-09-27T08:45:17.976Z,45.50
2022-09-27T08:47:55.535Z,45.10
2022-09-27T08:50:38.937Z,45.00
2022-09-27T08:53:22.148Z,44.90
2022-09-27T08:55:58.683Z,45.00
2022-09-27T08:58:47.274Z,45.10
2022-09-27T09:01:31.617Z,45.40
2022-09-27T09:04:36.901Z,45.50
2022-09-27T09:07:23.354Z,45.20
2022-09-27T09:10:05.049Z,45.40
2022-09-27T09:12:53.529Z,45.80
2022-09-27T09:15:58.381Z,46.20
2022-09-27T09:18:53.588Z,46.00
2022-09-27T09:21:56.109Z,46.50
2022-09-27T09:24:51.631Z,46.50
2022-09-27T09:27:38.918Z,46.30
2022-09-27T09:30:21.891Z,46.20
2022-09-27T09:33:16.015Z,46.00
2022-09-27T09:35:58.941Z,46.20
2022-09-27T09:38:40.976Z,46.30
2022-09-27T09:41:24.045Z,46.20
2022-09-27T09:44:02.609Z,46.00
2022-09-27T09:46:45.381Z,45.80
2022-09-27T09:49:25.540Z,45.80
2022-09-27T09:52:08.723Z,45.70
2022-09-27T09:54:47.965Z,45.70
2022-09-27T09:57:27.062Z,45.50
2022-09-27T10:00:04.481Z,45.40
2022-09-27T10:02:52.481Z,45.30
2022-09-27T10:05:30.400Z,45.30
2022-09-27T10:08:17.028Z,45.40
2022-09-27T10:10:52.569Z,45.30
2022-09-27T10:13:46.378Z,45.30
2022-09-27T10:16:24.236Z,45.20
2022-09-27T10:19:04.104Z,45.00
2022-09-27T10:21:45.420Z,45.00
2022-09-27T10:24:21.325Z,45.10
2022-09-27T10:27:01.153Z,44.90
2022-09-27T10:29:40.403Z,44.90
2022-09-27T10:32:31.531Z,45.00
2022-09-27T10:35:38.307Z,45.00
2022-09-27T10:38:27.042Z,44.70
2022-09-27T10:41:24.939Z,44.60
2022-09-27T10:44:25.578Z,44.70
2022-09-27T10:47:23.020Z,44.60
2022-09-27T10:50:45.855Z,44.50
2022-09-27T10:53:34.086Z,44.60
2022-09-27T10:56:24.152Z,44.50
2022-09-27T10:59:00.174Z,44.30
2022-09-27T11:01:46.046Z,44.30
2022-09-27T11:04:31.789Z,44.30
2022-09-27T11:07:20.227Z,44.30
2022-09-27T11:10:25.298Z,44.30
2022-09-27T11:13:14.486Z,44.60
2022-09-27T11:16:06.510Z,44.40
2022-09-27T11:18:51.007Z,44.50
2022-09-27T11:21:31.631Z,44.90
2022-09-27T11:24:27.221Z,45.70
2022-09-27T11:27:11.094Z,45.80
2022-09-27T11:30:02.591Z,46.20
2022-09-27T11:33:22.347Z,46.40
2022-09-27T11:36:06.413Z,47.10
2022-09-27T11:38:53.892Z,47.50
2022-09-27T11:41:42.110Z,48.80
2022-09-27T11:44:37.964Z,49.20
2022-09-27T11:47:19.767Z,49.80
2022-09-27T11:50:20.947Z,49.60
2022-09-27T11:53:08.868Z,49.60
2022-09-27T11:55:51.275Z,49.40
2022-09-27T11:58:34.593Z,49.30
2022-09-27T12:01:28.883Z,48.80
2022-09-27T12:04:25.559Z,48.30
2022-09-27T12:07:07.061Z,47.80
2022-09-27T12:09:47.190Z,47.50
2022-09-27T12:12:25.765Z,47.30
2022-09-27T12:15:07.021Z,47.30
2022-09-27T12:17:45.658Z,47.00
2022-09-27T12:20:24.588Z,46.90
2022-09-27T12:23:03.180Z,46.80
2022-09-27T12:25:58.788Z,46.40
2022-09-27T12:28:42.356Z,46.40
2022-09-27T12:31:31.031Z,46.20
2022-09-27T12:34:19.870Z,46.00
2022-09-27T12:37:00.496Z,46.00
2022-09-27T12:39:44.081Z,46.00
2022-09-27T12:42:34.043Z,45.90
2022-09-27T12:45:15.411Z,45.70
2022-09-27T12:48:04.713Z,45.80
2022-09-27T12:50:44.371Z,45.70
2022-09-27T12:53:23.896Z,45.60
2022-09-27T12:56:33.891Z,45.60
2022-09-27T12:59:40.909Z,45.80
2022-09-27T13:03:11.174Z,46.00
2022-09-27T13:05:58.682Z,45.90
2022-09-27T13:08:54.196Z,45.90
2022-09-27T13:11:41.794Z,45.80
2022-09-27T13:14:20.831Z,45.70
2022-09-27T13:16:56.107Z,45.80
2022-09-27T13:19:44.281Z,45.80
2022-09-27T13:22:38.751Z,45.70
2022-09-27T13:25:54.850Z,45.30
2022-09-27T13:29:02.210Z,45.20
2022-09-27T13:32:22.764Z,44.90
2022-09-27T13:35:20.294Z,44.70
2022-09-27T13:38:00.265Z,44.80
2022-09-27T13:40:45.739Z,44.70
2022-09-27T13:43:59.254Z,44.50
2022-09-27T13:46:53.381Z,44.40
2022-09-27T13:49:32.955Z,44.60
2022-09-27T13:52:23.605Z,44.50
2022-09-27T13:55:41.730Z,44.60
2022-09-27T13:58:45.165Z,44.70
2022-09-27T14:01:46.875Z,44.60
2022-09-27T14:04:27.105Z,44.60
2022-09-27T14:07:04.059Z,44.60
2022-09-27T14:09:42.597Z,45.40
2022-09-27T14:12:41.199Z,44.90
2022-09-27T14:15:22.781Z,45.10
2022-09-27T14:17:58.975Z,45.50
2022-09-27T14:20:40.793Z,45.50
2022-09-27T14:23:26.993Z,46.00
2022-09-27T14:26:03.813Z,47.10
2022-09-27T14:28:43.795Z,47.90
2022-09-27T14:31:29.608Z,48.50
2022-09-27T14:34:10.039Z,48.50
2022-09-27T14:37:04.657Z,48.80
2022-09-27T14:39:45.566Z,49.30
2022-09-27T14:42:39.310Z,48.50
2022-09-27T14:45:22.375Z,48.50
2022-09-27T14:47:56.389Z,48.80
2022-09-27T14:50:32.193Z,49.00
2022-09-27T14:53:23.359Z,49.10
2022-09-27T14:55:58.586Z,49.00
2022-09-27T14:58:46.999Z,48.90
2022-09-27T15:01:27.024Z,48.50
2022-09-27T15:04:07.936Z,48.70
2022-09-27T15:06:43.844Z,47.90
2022-09-27T15:09:19.871Z,47.80
2022-09-27T15:11:57.096Z,47.70
2022-09-27T15:14:34.604Z,47.70
2022-09-27T15:17:15.763Z,47.60
2022-09-27T15:20:04.772Z,47.70
2022-09-27T15:22:45.195Z,47.70
2022-09-27T15:25:34.963Z,47.70
2022-09-27T15:28:18.172Z,47.70
2022-09-27T15:30:56.971Z,47.70
2022-09-27T15:33:34.035Z,47.70
2022-09-27T15:36:10.587Z,47.70
2022-09-27T15:38:47.571Z,47.70
2022-09-27T15:41:22.285Z,47.70
2022-09-27T15:43:56.497Z,47.60
2022-09-27T15:46:37.130Z,47.70
2022-09-27T15:49:24.059Z,47.50
2022-09-27T15:51:59.569Z,47.30
2022-09-27T15:54:35.971Z,47.40
2022-09-27T15:57:13.707Z,47.30
2022-09-27T15:59:47.614Z,47.20
2022-09-27T16:02:23.034Z,47.10
2022-09-27T16:04:57.054Z,47.20
2022-09-27T16:07:30.996Z,47.40
2022-09-27T16:10:11.475Z,47.50
2022-09-27T16:12:45.942Z,47.50
2022-09-27T16:15:20.239Z,47.40
2022-09-27T16:17:56.695Z,47.40
2022-09-27T16:20:32.278Z,47.60
2022-09-27T16:23:06.814Z,47.60
2022-09-27T16:25:41.026Z,47.50
2022-09-27T16:28:15.199Z,47.60
2022-09-27T16:30:49.355Z,47.60
2022-09-27T16:33:24.741Z,47.70
2022-09-27T16:35:58.934Z,47.60
2022-09-27T16:38:33.013Z,47.70
2022-09-27T16:41:07.357Z,47.70
2022-09-27T16:43:41.478Z,47.70
2022-09-27T16:46:19.337Z,47.70
2022-09-27T16:48:57.297Z,47.60
2022-09-27T16:51:48.900Z,47.50
2022-09-27T16:54:23.088Z,47.40
2022-09-27T16:56:57.812Z,47.30
2022-09-27T16:59:32.607Z,47.30
2022-09-27T17:02:07.277Z,47.20
2022-09-27T17:04:43.303Z,47.30
2022-09-27T17:07:17.708Z,47.30
2022-09-27T17:09:52.129Z,47.30
2022-09-27T17:12:26.580Z,47.40
2022-09-27T17:15:01.108Z,47.40
2022-09-27T17:17:35.281Z,47.50
2022-09-27T17:20:13.848Z,47.70
2022-09-27T17:22:48.582Z,47.80
2022-09-27T17:25:23.223Z,47.90
2022-09-27T17:27:58.880Z,47.90
2022-09-27T17:30:35.097Z,48.10
2022-09-27T17:33:09.882Z,48.20
2022-09-27T17:35:48.045Z,48.20
2022-09-27T17:38:22.768Z,48.20
2022-09-27T17:41:08.774Z,48.30
2022-09-27T17:43:46.834Z,48.50
2022-09-27T17:46:23.407Z,49.20
2022-09-27T17:49:15.426Z,49.80
2022-09-27T17:51:53.457Z,49.80
2022-09-27T17:54:28.524Z,50.10
2022-09-27T17:57:02.893Z,50.40
2022-09-27T17:59:37.176Z,50.40
2022-09-27T18:02:11.482Z,50.50
2022-09-27T18:04:46.493Z,50.40
2022-09-27T18:07:22.508Z,50.30
2022-09-27T18:09:57.342Z,50.30
2022-09-27T18:12:33.425Z,51.20
2022-09-27T18:15:09.349Z,51.00
2022-09-27T18:17:46.243Z,51.30
2022-09-27T18:20:20.854Z,51.70
2022-09-27T18:22:57.051Z,51.80
2022-09-27T18:25:39.419Z,52.00
2022-09-27T18:28:14.876Z,52.50
2022-09-27T18:30:50.427Z,53.10
2022-09-27T18:33:25.738Z,53.30
2022-09-27T18:36:05.441Z,53.20
2022-09-27T18:38:41.847Z,53.20
2022-09-27T18:41:19.237Z,52.90
2022-09-27T18:43:57.354Z,52.70
2022-09-27T18:46:35.943Z,52.60
2022-09-27T18:49:12.627Z,52.50
2022-09-27T18:51:47.619Z,52.40
2022-09-27T18:54:24.133Z,52.90
2022-09-27T18:57:00.541Z,52.40
2022-09-27T18:59:35.742Z,52.20
2022-09-27T19:02:12.489Z,52.10
2022-09-27T19:04:46.786Z,52.00
2022-09-27T19:07:21.077Z,51.90
2022-09-27T19:09:56.747Z,51.80
2022-09-27T19:12:30.982Z,51.80
2022-09-27T19:15:05.989Z,51.70
2022-09-27T19:17:40.639Z,51.40
2022-09-27T19:20:15.521Z,51.20
2022-09-27T19:22:49.812Z,51.10
2022-09-27T19:25:25.399Z,50.90
2022-09-27T19:27:59.615Z,50.90
2022-09-27T19:30:34.013Z,51.50
2022-09-27T19:33:08.097Z,50.80
2022-09-27T19:35:42.469Z,50.60
2022-09-27T19:38:16.552Z,50.30
2022-09-27T19:40:56.468Z,50.30
2022-09-27T19:43:31.215Z,50.00
2022-09-27T19:46:06.358Z,49.90
2022-09-27T19:48:40.895Z,49.90
2022-09-27T19:51:17.011Z,50.00
2022-09-27T19:53:51.993Z,50.00
2022-09-27T19:56:27.811Z,50.10
2022-09-27T19:59:06.894Z,50.20
2022-09-27T20:01:42.208Z,50.40
2022-09-27T20:04:16.369Z,50.40
2022-09-27T20:06:50.454Z,50.50
2022-09-27T20:09:25.081Z,50.50
2022-09-27T20:12:00.566Z,50.60
2022-09-27T20:14:34.970Z,50.60
2022-09-27T20:17:09.707Z,50.60
2022-09-27T20:19:44.056Z,50.50
2022-09-27T20:22:18.094Z,50.50
2022-09-27T20:24:52.194Z,50.60
2022-09-27T20:27:27.618Z,50.70
2022-09-27T20:30:02.787Z,50.80
2022-09-27T20:32:37.249Z,50.80
2022-09-27T20:35:11.682Z,50.90
2022-09-27T20:37:45.677Z,50.90
2022-09-27T20:40:19.822Z,50.90
2022-09-27T20:42:55.134Z,50.90
2022-09-27T20:45:29.101Z,50.90
2022-09-27T20:48:03.413Z,50.90
2022-09-27T20:50:37.318Z,51.10
2022-09-27T20:53:11.603Z,51.90
2022-09-27T20:55:45.464Z,52.20
2022-09-27T20:58:20.439Z,52.40
2022-09-27T21:00:54.511Z,52.60
2022-09-27T21:03:28.387Z,52.60
2022-09-27T21:06:02.532Z,52.90
2022-09-27T21:08:36.516Z,53.10
2022-09-27T21:11:12.777Z,53.10
2022-09-27T21:13:49.517Z,53.30
2022-09-27T21:16:25.388Z,53.50
2022-09-27T21:18:59.689Z,53.50
2022-09-27T21:21:33.593Z,53.50
2022-09-27T21:24:07.253Z,54.10
2022-09-27T21:26:41.157Z,53.60
2022-09-27T21:29:16.927Z,53.50
2022-09-27T21:31:50.898Z,53.60
2022-09-27T21:34:24.745Z,53.50
2022-09-27T21:36:58.437Z,53.30
2022-09-27T21:39:32.768Z,53.70
2022-09-27T21:42:07.412Z,54.00
2022-09-27T21:44:43.182Z,53.50
2022-09-27T21:47:17.097Z,53.60
2022-09-27T21:49:51.061Z,53.80
2022-09-27T21:52:25.923Z,53.70
2022-09-27T21:55:00.067Z,53.70
2022-09-27T21:57:33.999Z,53.80
2022-09-27T22:00:11.473Z,53.70
2022-09-27T22:02:45.437Z,53.90
2022-09-27T22:05:20.596Z,53.90
2022-09-27T22:07:54.585Z,53.90
2022-09-27T22:10:28.939Z,54.00
2022-09-27T22:13:03.129Z,54.20
2022-09-27T22:15:39.568Z,54.20
2022-09-27T22:18:13.714Z,54.20
2022-09-27T22:20:48.195Z,54.30
2022-09-27T22:23:22.131Z,54.40
2022-09-27T22:25:56.238Z,54.50
2022-09-27T22:28:30.193Z,54.40
2022-09-27T22:31:07.679Z,54.30
2022-09-27T22:33:41.969Z,54.50
2022-09-27T22:36:16.165Z,54.80
2022-09-27T22:38:51.756Z,55.30
2022-09-27T22:41:26.416Z,54.70
2022-09-27T22:44:01.596Z,54.80
2022-09-27T22:46:37.974Z,54.80
2022-09-27T22:49:12.276Z,54.90
2022-09-27T22:51:46.613Z,54.80
2022-09-27T22:54:21.539Z,54.80
2022-09-27T22:56:57.562Z,54.90
2022-09-27T22:59:31.842Z,54.80
2022-09-27T23:02:07.276Z,54.90
2022-09-27T23:04:42.072Z,55.00
2022-09-27T23:07:16.124Z,55.00
2022-09-27T23:09:50.480Z,54.90
2022-09-27T23:12:24.778Z,54.90
2022-09-27T23:14:59.061Z,55.00
2022-09-27T23:17:34.791Z,54.90
2022-09-27T23:20:09.792Z,55.00
2022-09-27T23:22:43.764Z,55.00
2022-09-27T23:25:18.044Z,55.10
2022-09-27T23:27:53.019Z,55.00
2022-09-27T23:30:29.147Z,54.90
2022-09-27T23:33:04.572Z,55.00
2022-09-27T23:35:38.569Z,55.00
2022-09-27T23:38:13.913Z,55.10
2022-09-27T23:40:48.440Z,55.10
2022-09-27T23:43:22.426Z,55.10
2022-09-27T23:45:57.545Z,55.00
2022-09-27T23:48:33.152Z,55.20
2022-09-27T23:51:09.123Z,55.20
2022-09-27T23:53:44.655Z,55.30
2022-09-27T23:56:18.959Z,55.20
2022-09-27T23:58:54.381Z,55.10
